<?xml version="1.0" encoding="UTF-8" standalone="no" ?>
<gpx xmlns="http://www.topografix.com/GPX/1/1" xmlns:xsi="http://www.w3.org/2001/XMLSchema-instance" xsi:schemaLocation="http://www.topografix.com/GPX/1/1 http://www.topografix.com/GPX/1/1/gpx.xsd" version="1.1" creator="VisuGPX - https://www.visugpx.com">
  <metadata>
    <name>Tracé actuel: 26 JAN 2021 07:51</name>
  </metadata>
  <trk>
    <name><![CDATA[Tracé actuel: 26 JAN 2021 07:51]]></name>
    <trkseg>
      <trkpt lat="45.02417" lon="5.51736">
        <ele>1141.22</ele>
        <time>2021-01-26T06:54:36Z</time>
      </trkpt>
      <trkpt lat="45.024" lon="5.51733">
        <ele>1142.66</ele>
        <time>2021-01-26T06:55:17Z</time>
      </trkpt>
      <trkpt lat="45.02364" lon="5.51742">
        <ele>1144.11</ele>
        <time>2021-01-26T06:55:52Z</time>
      </trkpt>
      <trkpt lat="45.02342" lon="5.51747">
        <ele>1145.55</ele>
        <time>2021-01-26T06:56:19Z</time>
      </trkpt>
      <trkpt lat="45.02316" lon="5.51742">
        <ele>1147.47</ele>
        <time>2021-01-26T06:57:43Z</time>
      </trkpt>
      <trkpt lat="45.02288" lon="5.5173">
        <ele>1149.87</ele>
        <time>2021-01-26T06:58:14Z</time>
      </trkpt>
      <trkpt lat="45.02263" lon="5.51721">
        <ele>1151.8</ele>
        <time>2021-01-26T06:58:43Z</time>
      </trkpt>
      <trkpt lat="45.02231" lon="5.51716">
        <ele>1153.72</ele>
        <time>2021-01-26T06:59:15Z</time>
      </trkpt>
      <trkpt lat="45.02201" lon="5.51698">
        <ele>1154.68</ele>
        <time>2021-01-26T06:59:47Z</time>
      </trkpt>
      <trkpt lat="45.02176" lon="5.51685">
        <ele>1155.16</ele>
        <time>2021-01-26T07:00:14Z</time>
      </trkpt>
      <trkpt lat="45.02157" lon="5.51678">
        <ele>1156.6</ele>
        <time>2021-01-26T07:00:36Z</time>
      </trkpt>
      <trkpt lat="45.02125" lon="5.51666">
        <ele>1158.05</ele>
        <time>2021-01-26T07:01:09Z</time>
      </trkpt>
      <trkpt lat="45.02108" lon="5.5166">
        <ele>1158.53</ele>
        <time>2021-01-26T07:02:00Z</time>
      </trkpt>
      <trkpt lat="45.02085" lon="5.51666">
        <ele>1160.93</ele>
        <time>2021-01-26T07:02:27Z</time>
      </trkpt>
      <trkpt lat="45.02068" lon="5.51682">
        <ele>1161.89</ele>
        <time>2021-01-26T07:02:47Z</time>
      </trkpt>
      <trkpt lat="45.02049" lon="5.51704">
        <ele>1162.85</ele>
        <time>2021-01-26T07:03:12Z</time>
      </trkpt>
      <trkpt lat="45.02027" lon="5.51699">
        <ele>1166.22</ele>
        <time>2021-01-26T07:03:40Z</time>
      </trkpt>
      <trkpt lat="45.02003" lon="5.51701">
        <ele>1169.58</ele>
        <time>2021-01-26T07:04:11Z</time>
      </trkpt>
      <trkpt lat="45.01983" lon="5.51698">
        <ele>1171.98</ele>
        <time>2021-01-26T07:04:36Z</time>
      </trkpt>
      <trkpt lat="45.01961" lon="5.51687">
        <ele>1175.35</ele>
        <time>2021-01-26T07:05:05Z</time>
      </trkpt>
      <trkpt lat="45.01942" lon="5.51677">
        <ele>1177.27</ele>
        <time>2021-01-26T07:05:28Z</time>
      </trkpt>
      <trkpt lat="45.01924" lon="5.51663">
        <ele>1180.64</ele>
        <time>2021-01-26T07:05:51Z</time>
      </trkpt>
      <trkpt lat="45.01899" lon="5.51658">
        <ele>1181.6</ele>
        <time>2021-01-26T07:06:18Z</time>
      </trkpt>
      <trkpt lat="45.01872" lon="5.51656">
        <ele>1182.08</ele>
        <time>2021-01-26T07:07:00Z</time>
      </trkpt>
      <trkpt lat="45.01853" lon="5.51647">
        <ele>1179.19</ele>
        <time>2021-01-26T07:07:16Z</time>
      </trkpt>
      <trkpt lat="45.01833" lon="5.51642">
        <ele>1179.19</ele>
        <time>2021-01-26T07:07:36Z</time>
      </trkpt>
      <trkpt lat="45.01816" lon="5.51638">
        <ele>1179.19</ele>
        <time>2021-01-26T07:07:53Z</time>
      </trkpt>
      <trkpt lat="45.01797" lon="5.5163">
        <ele>1178.71</ele>
        <time>2021-01-26T07:08:09Z</time>
      </trkpt>
      <trkpt lat="45.01779" lon="5.51625">
        <ele>1180.64</ele>
        <time>2021-01-26T07:08:38Z</time>
      </trkpt>
      <trkpt lat="45.01754" lon="5.51632">
        <ele>1182.56</ele>
        <time>2021-01-26T07:09:25Z</time>
      </trkpt>
      <trkpt lat="45.01729" lon="5.51645">
        <ele>1183.52</ele>
        <time>2021-01-26T07:09:56Z</time>
      </trkpt>
      <trkpt lat="45.01706" lon="5.51657">
        <ele>1184.96</ele>
        <time>2021-01-26T07:10:24Z</time>
      </trkpt>
      <trkpt lat="45.01688" lon="5.51668">
        <ele>1185.92</ele>
        <time>2021-01-26T07:10:47Z</time>
      </trkpt>
      <trkpt lat="45.01666" lon="5.51686">
        <ele>1187.85</ele>
        <time>2021-01-26T07:11:19Z</time>
      </trkpt>
      <trkpt lat="45.01641" lon="5.517">
        <ele>1189.77</ele>
        <time>2021-01-26T07:11:48Z</time>
      </trkpt>
      <trkpt lat="45.01622" lon="5.51718">
        <ele>1191.69</ele>
        <time>2021-01-26T07:12:16Z</time>
      </trkpt>
      <trkpt lat="45.01605" lon="5.51735">
        <ele>1193.13</ele>
        <time>2021-01-26T07:12:40Z</time>
      </trkpt>
      <trkpt lat="45.01582" lon="5.51748">
        <ele>1195.54</ele>
        <time>2021-01-26T07:13:09Z</time>
      </trkpt>
      <trkpt lat="45.01554" lon="5.51757">
        <ele>1196.98</ele>
        <time>2021-01-26T07:13:39Z</time>
      </trkpt>
      <trkpt lat="45.01536" lon="5.51759">
        <ele>1198.42</ele>
        <time>2021-01-26T07:14:07Z</time>
      </trkpt>
      <trkpt lat="45.01511" lon="5.51764">
        <ele>1200.82</ele>
        <time>2021-01-26T07:14:34Z</time>
      </trkpt>
      <trkpt lat="45.01482" lon="5.51771">
        <ele>1202.27</ele>
        <time>2021-01-26T07:15:06Z</time>
      </trkpt>
      <trkpt lat="45.01456" lon="5.51776">
        <ele>1203.71</ele>
        <time>2021-01-26T07:15:36Z</time>
      </trkpt>
      <trkpt lat="45.01428" lon="5.51775">
        <ele>1205.15</ele>
        <time>2021-01-26T07:16:07Z</time>
      </trkpt>
      <trkpt lat="45.01397" lon="5.51771">
        <ele>1206.11</ele>
        <time>2021-01-26T07:16:40Z</time>
      </trkpt>
      <trkpt lat="45.0137" lon="5.51766">
        <ele>1207.55</ele>
        <time>2021-01-26T07:17:08Z</time>
      </trkpt>
      <trkpt lat="45.01347" lon="5.51773">
        <ele>1209.48</ele>
        <time>2021-01-26T07:17:39Z</time>
      </trkpt>
      <trkpt lat="45.01318" lon="5.51778">
        <ele>1210.44</ele>
        <time>2021-01-26T07:18:07Z</time>
      </trkpt>
      <trkpt lat="45.01295" lon="5.51792">
        <ele>1211.4</ele>
        <time>2021-01-26T07:18:38Z</time>
      </trkpt>
      <trkpt lat="45.01271" lon="5.5181">
        <ele>1213.32</ele>
        <time>2021-01-26T07:19:08Z</time>
      </trkpt>
      <trkpt lat="45.01247" lon="5.51832">
        <ele>1215.24</ele>
        <time>2021-01-26T07:19:45Z</time>
      </trkpt>
      <trkpt lat="45.0123" lon="5.51846">
        <ele>1216.21</ele>
        <time>2021-01-26T07:20:12Z</time>
      </trkpt>
      <trkpt lat="45.01209" lon="5.51861">
        <ele>1217.17</ele>
        <time>2021-01-26T07:20:41Z</time>
      </trkpt>
      <trkpt lat="45.01188" lon="5.51878">
        <ele>1218.13</ele>
        <time>2021-01-26T07:21:10Z</time>
      </trkpt>
      <trkpt lat="45.01162" lon="5.51896">
        <ele>1219.09</ele>
        <time>2021-01-26T07:21:41Z</time>
      </trkpt>
      <trkpt lat="45.01141" lon="5.51908">
        <ele>1220.05</ele>
        <time>2021-01-26T07:22:11Z</time>
      </trkpt>
      <trkpt lat="45.01116" lon="5.51923">
        <ele>1221.97</ele>
        <time>2021-01-26T07:22:41Z</time>
      </trkpt>
      <trkpt lat="45.01099" lon="5.51926">
        <ele>1222.93</ele>
        <time>2021-01-26T07:22:56Z</time>
      </trkpt>
      <trkpt lat="45.01076" lon="5.51926">
        <ele>1224.86</ele>
        <time>2021-01-26T07:23:22Z</time>
      </trkpt>
      <trkpt lat="45.01062" lon="5.51922">
        <ele>1226.3</ele>
        <time>2021-01-26T07:24:17Z</time>
      </trkpt>
      <trkpt lat="45.01047" lon="5.51934">
        <ele>1228.7</ele>
        <time>2021-01-26T07:25:38Z</time>
      </trkpt>
      <trkpt lat="45.01024" lon="5.51967">
        <ele>1234.95</ele>
        <time>2021-01-26T07:26:15Z</time>
      </trkpt>
      <trkpt lat="45.01004" lon="5.51991">
        <ele>1239.28</ele>
        <time>2021-01-26T07:26:54Z</time>
      </trkpt>
      <trkpt lat="45.00983" lon="5.52008">
        <ele>1242.16</ele>
        <time>2021-01-26T07:27:21Z</time>
      </trkpt>
      <trkpt lat="45.00957" lon="5.52019">
        <ele>1245.53</ele>
        <time>2021-01-26T07:27:49Z</time>
      </trkpt>
      <trkpt lat="45.00939" lon="5.52017">
        <ele>1246.49</ele>
        <time>2021-01-26T07:28:07Z</time>
      </trkpt>
      <trkpt lat="45.00921" lon="5.51999">
        <ele>1247.93</ele>
        <time>2021-01-26T07:28:35Z</time>
      </trkpt>
      <trkpt lat="45.00901" lon="5.51976">
        <ele>1249.85</ele>
        <time>2021-01-26T07:29:09Z</time>
      </trkpt>
      <trkpt lat="45.00879" lon="5.51956">
        <ele>1250.81</ele>
        <time>2021-01-26T07:29:39Z</time>
      </trkpt>
      <trkpt lat="45.00862" lon="5.51948">
        <ele>1251.77</ele>
        <time>2021-01-26T07:30:02Z</time>
      </trkpt>
      <trkpt lat="45.00837" lon="5.51935">
        <ele>1253.22</ele>
        <time>2021-01-26T07:30:29Z</time>
      </trkpt>
      <trkpt lat="45.00815" lon="5.51915">
        <ele>1254.18</ele>
        <time>2021-01-26T07:30:59Z</time>
      </trkpt>
      <trkpt lat="45.00794" lon="5.51899">
        <ele>1255.62</ele>
        <time>2021-01-26T07:31:30Z</time>
      </trkpt>
      <trkpt lat="45.00774" lon="5.51887">
        <ele>1257.06</ele>
        <time>2021-01-26T07:31:59Z</time>
      </trkpt>
      <trkpt lat="45.00752" lon="5.51884">
        <ele>1258.98</ele>
        <time>2021-01-26T07:32:30Z</time>
      </trkpt>
      <trkpt lat="45.00732" lon="5.51895">
        <ele>1262.35</ele>
        <time>2021-01-26T07:33:11Z</time>
      </trkpt>
      <trkpt lat="45.00705" lon="5.51902">
        <ele>1263.79</ele>
        <time>2021-01-26T07:33:40Z</time>
      </trkpt>
      <trkpt lat="45.00683" lon="5.51894">
        <ele>1265.23</ele>
        <time>2021-01-26T07:34:07Z</time>
      </trkpt>
      <trkpt lat="45.00664" lon="5.5188">
        <ele>1267.64</ele>
        <time>2021-01-26T07:34:35Z</time>
      </trkpt>
      <trkpt lat="45.00649" lon="5.51866">
        <ele>1269.56</ele>
        <time>2021-01-26T07:35:03Z</time>
      </trkpt>
      <trkpt lat="45.00636" lon="5.51845">
        <ele>1271.48</ele>
        <time>2021-01-26T07:35:34Z</time>
      </trkpt>
      <trkpt lat="45.00628" lon="5.51819">
        <ele>1273.88</ele>
        <time>2021-01-26T07:36:03Z</time>
      </trkpt>
      <trkpt lat="45.0062" lon="5.51792">
        <ele>1277.25</ele>
        <time>2021-01-26T07:36:47Z</time>
      </trkpt>
      <trkpt lat="45.00624" lon="5.51759">
        <ele>1281.57</ele>
        <time>2021-01-26T07:37:19Z</time>
      </trkpt>
      <trkpt lat="45.00604" lon="5.51739">
        <ele>1284.94</ele>
        <time>2021-01-26T07:37:59Z</time>
      </trkpt>
      <trkpt lat="45.00583" lon="5.51727">
        <ele>1286.86</ele>
        <time>2021-01-26T07:38:32Z</time>
      </trkpt>
      <trkpt lat="45.00559" lon="5.51718">
        <ele>1288.78</ele>
        <time>2021-01-26T07:39:04Z</time>
      </trkpt>
      <trkpt lat="45.00537" lon="5.51705">
        <ele>1289.75</ele>
        <time>2021-01-26T07:39:37Z</time>
      </trkpt>
      <trkpt lat="45.00518" lon="5.51694">
        <ele>1292.15</ele>
        <time>2021-01-26T07:40:08Z</time>
      </trkpt>
      <trkpt lat="45.00493" lon="5.51682">
        <ele>1296.96</ele>
        <time>2021-01-26T07:40:55Z</time>
      </trkpt>
      <trkpt lat="45.00468" lon="5.51678">
        <ele>1301.76</ele>
        <time>2021-01-26T07:41:41Z</time>
      </trkpt>
      <trkpt lat="45.00443" lon="5.51678">
        <ele>1307.05</ele>
        <time>2021-01-26T07:42:25Z</time>
      </trkpt>
      <trkpt lat="45.0042" lon="5.51673">
        <ele>1308.49</ele>
        <time>2021-01-26T07:42:54Z</time>
      </trkpt>
      <trkpt lat="45.00398" lon="5.51664">
        <ele>1309.93</ele>
        <time>2021-01-26T07:43:26Z</time>
      </trkpt>
      <trkpt lat="45.00372" lon="5.51662">
        <ele>1311.86</ele>
        <time>2021-01-26T07:43:58Z</time>
      </trkpt>
      <trkpt lat="45.00343" lon="5.51665">
        <ele>1315.22</ele>
        <time>2021-01-26T07:44:40Z</time>
      </trkpt>
      <trkpt lat="45.00318" lon="5.5166">
        <ele>1316.18</ele>
        <time>2021-01-26T07:45:11Z</time>
      </trkpt>
      <trkpt lat="45.00298" lon="5.5166">
        <ele>1317.14</ele>
        <time>2021-01-26T07:45:39Z</time>
      </trkpt>
      <trkpt lat="45.00271" lon="5.51664">
        <ele>1321.47</ele>
        <time>2021-01-26T07:46:20Z</time>
      </trkpt>
      <trkpt lat="45.00243" lon="5.51662">
        <ele>1322.91</ele>
        <time>2021-01-26T07:46:52Z</time>
      </trkpt>
      <trkpt lat="45.00221" lon="5.51657">
        <ele>1324.35</ele>
        <time>2021-01-26T07:47:23Z</time>
      </trkpt>
      <trkpt lat="45.00203" lon="5.51657">
        <ele>1327.24</ele>
        <time>2021-01-26T07:47:51Z</time>
      </trkpt>
      <trkpt lat="45.00179" lon="5.51662">
        <ele>1331.56</ele>
        <time>2021-01-26T07:48:36Z</time>
      </trkpt>
      <trkpt lat="45.00159" lon="5.51674">
        <ele>1334.93</ele>
        <time>2021-01-26T07:49:13Z</time>
      </trkpt>
      <trkpt lat="45.00135" lon="5.51681">
        <ele>1337.33</ele>
        <time>2021-01-26T07:49:44Z</time>
      </trkpt>
      <trkpt lat="45.00117" lon="5.51689">
        <ele>1339.73</ele>
        <time>2021-01-26T07:50:15Z</time>
      </trkpt>
      <trkpt lat="45.00098" lon="5.51697">
        <ele>1343.58</ele>
        <time>2021-01-26T07:50:53Z</time>
      </trkpt>
      <trkpt lat="45.00074" lon="5.517">
        <ele>1350.31</ele>
        <time>2021-01-26T07:51:39Z</time>
      </trkpt>
      <trkpt lat="45.00056" lon="5.51709">
        <ele>1354.63</ele>
        <time>2021-01-26T07:52:19Z</time>
      </trkpt>
      <trkpt lat="45.00039" lon="5.51718">
        <ele>1358.48</ele>
        <time>2021-01-26T07:52:50Z</time>
      </trkpt>
      <trkpt lat="45.00012" lon="5.51719">
        <ele>1359.44</ele>
        <time>2021-01-26T07:53:25Z</time>
      </trkpt>
      <trkpt lat="44.99989" lon="5.51729">
        <ele>1360.4</ele>
        <time>2021-01-26T07:54:15Z</time>
      </trkpt>
      <trkpt lat="44.99963" lon="5.51717">
        <ele>1362.81</ele>
        <time>2021-01-26T07:54:50Z</time>
      </trkpt>
      <trkpt lat="44.99943" lon="5.51712">
        <ele>1365.21</ele>
        <time>2021-01-26T07:55:20Z</time>
      </trkpt>
      <trkpt lat="44.99921" lon="5.51719">
        <ele>1368.57</ele>
        <time>2021-01-26T07:56:01Z</time>
      </trkpt>
      <trkpt lat="44.99899" lon="5.51721">
        <ele>1372.9</ele>
        <time>2021-01-26T07:56:41Z</time>
      </trkpt>
      <trkpt lat="44.99875" lon="5.51716">
        <ele>1378.19</ele>
        <time>2021-01-26T07:57:25Z</time>
      </trkpt>
      <trkpt lat="44.99877" lon="5.51732">
        <ele>1381.55</ele>
        <time>2021-01-26T07:58:30Z</time>
      </trkpt>
      <trkpt lat="44.99891" lon="5.51748">
        <ele>1380.11</ele>
        <time>2021-01-26T07:59:01Z</time>
      </trkpt>
      <trkpt lat="44.9991" lon="5.51753">
        <ele>1377.71</ele>
        <time>2021-01-26T07:59:34Z</time>
      </trkpt>
      <trkpt lat="44.99926" lon="5.5177">
        <ele>1377.23</ele>
        <time>2021-01-26T08:00:01Z</time>
      </trkpt>
      <trkpt lat="44.99939" lon="5.51792">
        <ele>1377.71</ele>
        <time>2021-01-26T08:00:26Z</time>
      </trkpt>
      <trkpt lat="44.99947" lon="5.51817">
        <ele>1381.07</ele>
        <time>2021-01-26T08:00:56Z</time>
      </trkpt>
      <trkpt lat="44.99944" lon="5.51848">
        <ele>1388.76</ele>
        <time>2021-01-26T08:01:46Z</time>
      </trkpt>
      <trkpt lat="44.99937" lon="5.51875">
        <ele>1394.53</ele>
        <time>2021-01-26T08:02:30Z</time>
      </trkpt>
      <trkpt lat="44.99925" lon="5.519">
        <ele>1399.82</ele>
        <time>2021-01-26T08:03:12Z</time>
      </trkpt>
      <trkpt lat="44.99908" lon="5.51923">
        <ele>1405.58</ele>
        <time>2021-01-26T08:03:57Z</time>
      </trkpt>
      <trkpt lat="44.99895" lon="5.5194">
        <ele>1411.35</ele>
        <time>2021-01-26T08:04:41Z</time>
      </trkpt>
      <trkpt lat="44.99881" lon="5.51969">
        <ele>1419.52</ele>
        <time>2021-01-26T08:05:40Z</time>
      </trkpt>
      <trkpt lat="44.99871" lon="5.51993">
        <ele>1424.33</ele>
        <time>2021-01-26T08:06:22Z</time>
      </trkpt>
      <trkpt lat="44.99861" lon="5.52021">
        <ele>1430.1</ele>
        <time>2021-01-26T08:07:07Z</time>
      </trkpt>
      <trkpt lat="44.99844" lon="5.52044">
        <ele>1435.39</ele>
        <time>2021-01-26T08:07:50Z</time>
      </trkpt>
      <trkpt lat="44.99831" lon="5.52065">
        <ele>1439.71</ele>
        <time>2021-01-26T08:08:29Z</time>
      </trkpt>
      <trkpt lat="44.99821" lon="5.52096">
        <ele>1444.04</ele>
        <time>2021-01-26T08:09:14Z</time>
      </trkpt>
      <trkpt lat="44.99806" lon="5.52125">
        <ele>1449.32</ele>
        <time>2021-01-26T08:09:58Z</time>
      </trkpt>
      <trkpt lat="44.99793" lon="5.52146">
        <ele>1452.21</ele>
        <time>2021-01-26T08:10:29Z</time>
      </trkpt>
      <trkpt lat="44.99779" lon="5.52161">
        <ele>1454.61</ele>
        <time>2021-01-26T08:11:05Z</time>
      </trkpt>
      <trkpt lat="44.99759" lon="5.52175">
        <ele>1459.42</ele>
        <time>2021-01-26T08:11:44Z</time>
      </trkpt>
      <trkpt lat="44.99738" lon="5.52184">
        <ele>1465.19</ele>
        <time>2021-01-26T08:13:03Z</time>
      </trkpt>
      <trkpt lat="44.9972" lon="5.52186">
        <ele>1470.47</ele>
        <time>2021-01-26T08:14:03Z</time>
      </trkpt>
      <trkpt lat="44.99699" lon="5.52192">
        <ele>1477.2</ele>
        <time>2021-01-26T08:14:47Z</time>
      </trkpt>
      <trkpt lat="44.99674" lon="5.52192">
        <ele>1481.05</ele>
        <time>2021-01-26T08:15:40Z</time>
      </trkpt>
      <trkpt lat="44.99656" lon="5.52198">
        <ele>1486.82</ele>
        <time>2021-01-26T08:16:20Z</time>
      </trkpt>
      <trkpt lat="44.99636" lon="5.52206">
        <ele>1493.06</ele>
        <time>2021-01-26T08:17:10Z</time>
      </trkpt>
      <trkpt lat="44.99622" lon="5.52219">
        <ele>1497.39</ele>
        <time>2021-01-26T08:17:49Z</time>
      </trkpt>
      <trkpt lat="44.996" lon="5.5222">
        <ele>1502.2</ele>
        <time>2021-01-26T08:18:28Z</time>
      </trkpt>
      <trkpt lat="44.99577" lon="5.52221">
        <ele>1506.04</ele>
        <time>2021-01-26T08:19:11Z</time>
      </trkpt>
      <trkpt lat="44.99556" lon="5.52221">
        <ele>1513.25</ele>
        <time>2021-01-26T08:20:02Z</time>
      </trkpt>
      <trkpt lat="44.99548" lon="5.52247">
        <ele>1520.46</ele>
        <time>2021-01-26T08:20:54Z</time>
      </trkpt>
      <trkpt lat="44.99529" lon="5.52255">
        <ele>1526.23</ele>
        <time>2021-01-26T08:21:37Z</time>
      </trkpt>
      <trkpt lat="44.99503" lon="5.52255">
        <ele>1531.52</ele>
        <time>2021-01-26T08:22:21Z</time>
      </trkpt>
      <trkpt lat="44.99481" lon="5.52248">
        <ele>1536.8</ele>
        <time>2021-01-26T08:23:01Z</time>
      </trkpt>
      <trkpt lat="44.99461" lon="5.52257">
        <ele>1541.61</ele>
        <time>2021-01-26T08:23:41Z</time>
      </trkpt>
      <trkpt lat="44.99441" lon="5.5227">
        <ele>1548.82</ele>
        <time>2021-01-26T08:24:33Z</time>
      </trkpt>
      <trkpt lat="44.99426" lon="5.52288">
        <ele>1553.15</ele>
        <time>2021-01-26T08:26:20Z</time>
      </trkpt>
      <trkpt lat="44.99411" lon="5.52302">
        <ele>1555.07</ele>
        <time>2021-01-26T08:26:48Z</time>
      </trkpt>
      <trkpt lat="44.99407" lon="5.52298">
        <ele>1552.19</ele>
        <time>2021-01-26T08:29:54Z</time>
      </trkpt>
      <trkpt lat="44.99395" lon="5.52319">
        <ele>1555.07</ele>
        <time>2021-01-26T08:31:10Z</time>
      </trkpt>
      <trkpt lat="44.99386" lon="5.52344">
        <ele>1557.47</ele>
        <time>2021-01-26T08:31:40Z</time>
      </trkpt>
      <trkpt lat="44.99375" lon="5.5237">
        <ele>1562.28</ele>
        <time>2021-01-26T08:32:20Z</time>
      </trkpt>
      <trkpt lat="44.99363" lon="5.52393">
        <ele>1568.05</ele>
        <time>2021-01-26T08:33:00Z</time>
      </trkpt>
      <trkpt lat="44.99352" lon="5.52416">
        <ele>1572.85</ele>
        <time>2021-01-26T08:33:41Z</time>
      </trkpt>
      <trkpt lat="44.9934" lon="5.52438">
        <ele>1579.58</ele>
        <time>2021-01-26T08:34:20Z</time>
      </trkpt>
      <trkpt lat="44.99322" lon="5.52464">
        <ele>1582.95</ele>
        <time>2021-01-26T08:35:03Z</time>
      </trkpt>
      <trkpt lat="44.99312" lon="5.52489">
        <ele>1584.87</ele>
        <time>2021-01-26T08:35:43Z</time>
      </trkpt>
      <trkpt lat="44.99296" lon="5.52505">
        <ele>1589.68</ele>
        <time>2021-01-26T08:36:27Z</time>
      </trkpt>
      <trkpt lat="44.99292" lon="5.52526">
        <ele>1594</ele>
        <time>2021-01-26T08:37:09Z</time>
      </trkpt>
      <trkpt lat="44.99272" lon="5.5253">
        <ele>1601.21</ele>
        <time>2021-01-26T08:38:03Z</time>
      </trkpt>
      <trkpt lat="44.99265" lon="5.52551">
        <ele>1606.5</ele>
        <time>2021-01-26T08:38:47Z</time>
      </trkpt>
      <trkpt lat="44.99252" lon="5.52565">
        <ele>1612.75</ele>
        <time>2021-01-26T08:39:35Z</time>
      </trkpt>
      <trkpt lat="44.99245" lon="5.52579">
        <ele>1617.56</ele>
        <time>2021-01-26T08:40:16Z</time>
      </trkpt>
      <trkpt lat="44.99247" lon="5.52608">
        <ele>1624.28</ele>
        <time>2021-01-26T08:41:30Z</time>
      </trkpt>
      <trkpt lat="44.99229" lon="5.52618">
        <ele>1629.09</ele>
        <time>2021-01-26T08:42:10Z</time>
      </trkpt>
      <trkpt lat="44.99212" lon="5.52631">
        <ele>1633.42</ele>
        <time>2021-01-26T08:42:51Z</time>
      </trkpt>
      <trkpt lat="44.99197" lon="5.52648">
        <ele>1639.19</ele>
        <time>2021-01-26T08:43:33Z</time>
      </trkpt>
      <trkpt lat="44.99176" lon="5.52667">
        <ele>1645.91</ele>
        <time>2021-01-26T08:44:26Z</time>
      </trkpt>
      <trkpt lat="44.99159" lon="5.52684">
        <ele>1650.72</ele>
        <time>2021-01-26T08:45:06Z</time>
      </trkpt>
      <trkpt lat="44.9914" lon="5.52694">
        <ele>1656.01</ele>
        <time>2021-01-26T08:45:48Z</time>
      </trkpt>
      <trkpt lat="44.99117" lon="5.52705">
        <ele>1658.89</ele>
        <time>2021-01-26T08:46:31Z</time>
      </trkpt>
      <trkpt lat="44.991" lon="5.52716">
        <ele>1662.26</ele>
        <time>2021-01-26T08:47:03Z</time>
      </trkpt>
      <trkpt lat="44.99079" lon="5.52724">
        <ele>1667.06</ele>
        <time>2021-01-26T08:47:45Z</time>
      </trkpt>
      <trkpt lat="44.99065" lon="5.52731">
        <ele>1668.02</ele>
        <time>2021-01-26T08:50:09Z</time>
      </trkpt>
      <trkpt lat="44.99046" lon="5.52734">
        <ele>1673.31</ele>
        <time>2021-01-26T08:50:48Z</time>
      </trkpt>
      <trkpt lat="44.99031" lon="5.52747">
        <ele>1676.68</ele>
        <time>2021-01-26T08:51:31Z</time>
      </trkpt>
      <trkpt lat="44.99019" lon="5.52766">
        <ele>1682.44</ele>
        <time>2021-01-26T08:52:22Z</time>
      </trkpt>
      <trkpt lat="44.99006" lon="5.52777">
        <ele>1688.21</ele>
        <time>2021-01-26T08:53:12Z</time>
      </trkpt>
      <trkpt lat="44.99" lon="5.52802">
        <ele>1694.46</ele>
        <time>2021-01-26T08:53:56Z</time>
      </trkpt>
      <trkpt lat="44.98984" lon="5.52819">
        <ele>1700.23</ele>
        <time>2021-01-26T08:54:36Z</time>
      </trkpt>
      <trkpt lat="44.98968" lon="5.5284">
        <ele>1704.07</ele>
        <time>2021-01-26T08:55:26Z</time>
      </trkpt>
      <trkpt lat="44.98947" lon="5.52857">
        <ele>1709.36</ele>
        <time>2021-01-26T08:56:13Z</time>
      </trkpt>
      <trkpt lat="44.98929" lon="5.52868">
        <ele>1713.69</ele>
        <time>2021-01-26T08:56:53Z</time>
      </trkpt>
      <trkpt lat="44.98908" lon="5.52868">
        <ele>1713.69</ele>
        <time>2021-01-26T08:57:31Z</time>
      </trkpt>
      <trkpt lat="44.98892" lon="5.52856">
        <ele>1719.46</ele>
        <time>2021-01-26T08:58:11Z</time>
      </trkpt>
      <trkpt lat="44.98881" lon="5.5287">
        <ele>1724.26</ele>
        <time>2021-01-26T08:58:59Z</time>
      </trkpt>
      <trkpt lat="44.98866" lon="5.52874">
        <ele>1729.55</ele>
        <time>2021-01-26T08:59:52Z</time>
      </trkpt>
      <trkpt lat="44.98854" lon="5.52886">
        <ele>1735.32</ele>
        <time>2021-01-26T09:00:45Z</time>
      </trkpt>
      <trkpt lat="44.98839" lon="5.52897">
        <ele>1742.05</ele>
        <time>2021-01-26T09:01:37Z</time>
      </trkpt>
      <trkpt lat="44.98819" lon="5.52893">
        <ele>1748.29</ele>
        <time>2021-01-26T09:02:40Z</time>
      </trkpt>
      <trkpt lat="44.98818" lon="5.52917">
        <ele>1755.5</ele>
        <time>2021-01-26T09:03:42Z</time>
      </trkpt>
      <trkpt lat="44.98812" lon="5.52933">
        <ele>1761.75</ele>
        <time>2021-01-26T09:04:57Z</time>
      </trkpt>
      <trkpt lat="44.98811" lon="5.52959">
        <ele>1768.96</ele>
        <time>2021-01-26T09:06:05Z</time>
      </trkpt>
      <trkpt lat="44.98798" lon="5.52967">
        <ele>1777.13</ele>
        <time>2021-01-26T09:07:19Z</time>
      </trkpt>
      <trkpt lat="44.98784" lon="5.52973">
        <ele>1783.86</ele>
        <time>2021-01-26T09:08:28Z</time>
      </trkpt>
      <trkpt lat="44.98791" lon="5.53002">
        <ele>1789.63</ele>
        <time>2021-01-26T09:09:27Z</time>
      </trkpt>
      <trkpt lat="44.98782" lon="5.53015">
        <ele>1795.4</ele>
        <time>2021-01-26T09:10:27Z</time>
      </trkpt>
      <trkpt lat="44.98771" lon="5.53023">
        <ele>1803.09</ele>
        <time>2021-01-26T09:11:40Z</time>
      </trkpt>
      <trkpt lat="44.98771" lon="5.53049">
        <ele>1810.3</ele>
        <time>2021-01-26T09:12:46Z</time>
      </trkpt>
      <trkpt lat="44.98767" lon="5.53064">
        <ele>1816.07</ele>
        <time>2021-01-26T09:14:04Z</time>
      </trkpt>
      <trkpt lat="44.9876" lon="5.53077">
        <ele>1822.8</ele>
        <time>2021-01-26T09:15:28Z</time>
      </trkpt>
      <trkpt lat="44.98754" lon="5.53091">
        <ele>1828.56</ele>
        <time>2021-01-26T09:17:13Z</time>
      </trkpt>
      <trkpt lat="44.98743" lon="5.53101">
        <ele>1837.22</ele>
        <time>2021-01-26T09:18:27Z</time>
      </trkpt>
      <trkpt lat="44.98733" lon="5.53114">
        <ele>1843.47</ele>
        <time>2021-01-26T09:19:19Z</time>
      </trkpt>
      <trkpt lat="44.9872" lon="5.53127">
        <ele>1850.19</ele>
        <time>2021-01-26T09:20:18Z</time>
      </trkpt>
      <trkpt lat="44.9871" lon="5.53147">
        <ele>1857.89</ele>
        <time>2021-01-26T09:21:14Z</time>
      </trkpt>
      <trkpt lat="44.98715" lon="5.53162">
        <ele>1860.29</ele>
        <time>2021-01-26T09:22:39Z</time>
      </trkpt>
      <trkpt lat="44.98707" lon="5.53179">
        <ele>1868.94</ele>
        <time>2021-01-26T09:23:42Z</time>
      </trkpt>
      <trkpt lat="44.98689" lon="5.53193">
        <ele>1876.63</ele>
        <time>2021-01-26T09:24:37Z</time>
      </trkpt>
      <trkpt lat="44.98673" lon="5.53206">
        <ele>1883.84</ele>
        <time>2021-01-26T09:25:36Z</time>
      </trkpt>
      <trkpt lat="44.98682" lon="5.5323">
        <ele>1890.57</ele>
        <time>2021-01-26T09:26:30Z</time>
      </trkpt>
      <trkpt lat="44.98675" lon="5.5324">
        <ele>1895.86</ele>
        <time>2021-01-26T09:27:30Z</time>
      </trkpt>
      <trkpt lat="44.98672" lon="5.53259">
        <ele>1903.07</ele>
        <time>2021-01-26T09:28:49Z</time>
      </trkpt>
      <trkpt lat="44.98659" lon="5.53262">
        <ele>1907.39</ele>
        <time>2021-01-26T09:30:42Z</time>
      </trkpt>
      <trkpt lat="44.98638" lon="5.53272">
        <ele>1914.6</ele>
        <time>2021-01-26T09:31:48Z</time>
      </trkpt>
      <trkpt lat="44.98616" lon="5.53286">
        <ele>1923.25</ele>
        <time>2021-01-26T09:32:46Z</time>
      </trkpt>
      <trkpt lat="44.98601" lon="5.53299">
        <ele>1928.54</ele>
        <time>2021-01-26T09:33:36Z</time>
      </trkpt>
      <trkpt lat="44.98583" lon="5.53311">
        <ele>1937.67</ele>
        <time>2021-01-26T09:34:37Z</time>
      </trkpt>
      <trkpt lat="44.98567" lon="5.53327">
        <ele>1945.36</ele>
        <time>2021-01-26T09:35:30Z</time>
      </trkpt>
      <trkpt lat="44.98547" lon="5.5334">
        <ele>1952.09</ele>
        <time>2021-01-26T09:36:37Z</time>
      </trkpt>
      <trkpt lat="44.98531" lon="5.53356">
        <ele>1960.75</ele>
        <time>2021-01-26T09:38:05Z</time>
      </trkpt>
      <trkpt lat="44.98538" lon="5.53378">
        <ele>1969.4</ele>
        <time>2021-01-26T09:39:07Z</time>
      </trkpt>
      <trkpt lat="44.98557" lon="5.53385">
        <ele>1971.32</ele>
        <time>2021-01-26T09:40:18Z</time>
      </trkpt>
      <trkpt lat="44.98563" lon="5.53397">
        <ele>1974.2</ele>
        <time>2021-01-26T09:42:05Z</time>
      </trkpt>
      <trkpt lat="44.98559" lon="5.53396">
        <ele>1973.72</ele>
        <time>2021-01-26T09:45:18Z</time>
      </trkpt>
      <trkpt lat="44.9854" lon="5.53405">
        <ele>1979.49</ele>
        <time>2021-01-26T09:46:00Z</time>
      </trkpt>
      <trkpt lat="44.98517" lon="5.53413">
        <ele>1984.3</ele>
        <time>2021-01-26T09:46:50Z</time>
      </trkpt>
      <trkpt lat="44.98497" lon="5.53423">
        <ele>1989.1</ele>
        <time>2021-01-26T09:47:27Z</time>
      </trkpt>
      <trkpt lat="44.9848" lon="5.53434">
        <ele>1992.95</ele>
        <time>2021-01-26T09:48:42Z</time>
      </trkpt>
      <trkpt lat="44.98458" lon="5.53445">
        <ele>1999.2</ele>
        <time>2021-01-26T09:49:39Z</time>
      </trkpt>
      <trkpt lat="44.98443" lon="5.53461">
        <ele>2004.01</ele>
        <time>2021-01-26T09:50:35Z</time>
      </trkpt>
      <trkpt lat="44.98427" lon="5.53465">
        <ele>2005.93</ele>
        <time>2021-01-26T09:51:49Z</time>
      </trkpt>
      <trkpt lat="44.98427" lon="5.53463">
        <ele>2001.6</ele>
        <time>2021-01-26T10:01:24Z</time>
      </trkpt>
      <trkpt lat="44.98452" lon="5.53452">
        <ele>1997.76</ele>
        <time>2021-01-26T10:05:14Z</time>
      </trkpt>
      <trkpt lat="44.98478" lon="5.53431">
        <ele>1988.62</ele>
        <time>2021-01-26T10:05:42Z</time>
      </trkpt>
      <trkpt lat="44.98507" lon="5.53419">
        <ele>1980.93</ele>
        <time>2021-01-26T10:05:52Z</time>
      </trkpt>
      <trkpt lat="44.9853" lon="5.53409">
        <ele>1976.13</ele>
        <time>2021-01-26T10:05:59Z</time>
      </trkpt>
      <trkpt lat="44.98547" lon="5.53401">
        <ele>1974.2</ele>
        <time>2021-01-26T10:06:23Z</time>
      </trkpt>
      <trkpt lat="44.98561" lon="5.53391">
        <ele>1965.55</ele>
        <time>2021-01-26T10:06:44Z</time>
      </trkpt>
      <trkpt lat="44.98539" lon="5.53376">
        <ele>1959.3</ele>
        <time>2021-01-26T10:06:53Z</time>
      </trkpt>
      <trkpt lat="44.98527" lon="5.53366">
        <ele>1954.02</ele>
        <time>2021-01-26T10:07:27Z</time>
      </trkpt>
      <trkpt lat="44.98533" lon="5.5335">
        <ele>1945.36</ele>
        <time>2021-01-26T10:07:38Z</time>
      </trkpt>
      <trkpt lat="44.98561" lon="5.53337">
        <ele>1939.12</ele>
        <time>2021-01-26T10:07:49Z</time>
      </trkpt>
      <trkpt lat="44.98585" lon="5.53326">
        <ele>1930.95</ele>
        <time>2021-01-26T10:08:14Z</time>
      </trkpt>
      <trkpt lat="44.98606" lon="5.53319">
        <ele>1927.58</ele>
        <time>2021-01-26T10:08:20Z</time>
      </trkpt>
      <trkpt lat="44.98629" lon="5.53315">
        <ele>1921.33</ele>
        <time>2021-01-26T10:08:29Z</time>
      </trkpt>
      <trkpt lat="44.98636" lon="5.53306">
        <ele>1918.45</ele>
        <time>2021-01-26T10:08:45Z</time>
      </trkpt>
      <trkpt lat="44.98647" lon="5.53294">
        <ele>1909.32</ele>
        <time>2021-01-26T10:08:56Z</time>
      </trkpt>
      <trkpt lat="44.98647" lon="5.53281">
        <ele>1905.95</ele>
        <time>2021-01-26T10:09:07Z</time>
      </trkpt>
      <trkpt lat="44.98668" lon="5.53275">
        <ele>1898.74</ele>
        <time>2021-01-26T10:09:17Z</time>
      </trkpt>
      <trkpt lat="44.98665" lon="5.53255">
        <ele>1891.05</ele>
        <time>2021-01-26T10:09:30Z</time>
      </trkpt>
      <trkpt lat="44.98672" lon="5.53247">
        <ele>1889.61</ele>
        <time>2021-01-26T10:10:09Z</time>
      </trkpt>
      <trkpt lat="44.9868" lon="5.53231">
        <ele>1877.11</ele>
        <time>2021-01-26T10:10:39Z</time>
      </trkpt>
      <trkpt lat="44.98692" lon="5.53213">
        <ele>1868.46</ele>
        <time>2021-01-26T10:10:48Z</time>
      </trkpt>
      <trkpt lat="44.98709" lon="5.53203">
        <ele>1861.73</ele>
        <time>2021-01-26T10:10:56Z</time>
      </trkpt>
      <trkpt lat="44.9872" lon="5.53174">
        <ele>1849.23</ele>
        <time>2021-01-26T10:11:06Z</time>
      </trkpt>
      <trkpt lat="44.98709" lon="5.5315">
        <ele>1844.91</ele>
        <time>2021-01-26T10:11:14Z</time>
      </trkpt>
      <trkpt lat="44.98727" lon="5.53154">
        <ele>1840.58</ele>
        <time>2021-01-26T10:11:20Z</time>
      </trkpt>
      <trkpt lat="44.98727" lon="5.5313">
        <ele>1835.29</ele>
        <time>2021-01-26T10:11:29Z</time>
      </trkpt>
      <trkpt lat="44.98745" lon="5.53123">
        <ele>1824.24</ele>
        <time>2021-01-26T10:11:47Z</time>
      </trkpt>
      <trkpt lat="44.98749" lon="5.53097">
        <ele>1815.59</ele>
        <time>2021-01-26T10:11:56Z</time>
      </trkpt>
      <trkpt lat="44.98769" lon="5.53094">
        <ele>1803.57</ele>
        <time>2021-01-26T10:12:05Z</time>
      </trkpt>
      <trkpt lat="44.98776" lon="5.53066">
        <ele>1792.52</ele>
        <time>2021-01-26T10:12:13Z</time>
      </trkpt>
      <trkpt lat="44.98791" lon="5.53037">
        <ele>1777.13</ele>
        <time>2021-01-26T10:12:45Z</time>
      </trkpt>
      <trkpt lat="44.98802" lon="5.53016">
        <ele>1768.48</ele>
        <time>2021-01-26T10:12:49Z</time>
      </trkpt>
      <trkpt lat="44.9881" lon="5.52989">
        <ele>1756.95</ele>
        <time>2021-01-26T10:12:55Z</time>
      </trkpt>
      <trkpt lat="44.98822" lon="5.52945">
        <ele>1740.12</ele>
        <time>2021-01-26T10:13:04Z</time>
      </trkpt>
      <trkpt lat="44.98836" lon="5.52916">
        <ele>1726.67</ele>
        <time>2021-01-26T10:13:10Z</time>
      </trkpt>
      <trkpt lat="44.98849" lon="5.52898">
        <ele>1716.09</ele>
        <time>2021-01-26T10:13:17Z</time>
      </trkpt>
      <trkpt lat="44.98867" lon="5.52881">
        <ele>1708.88</ele>
        <time>2021-01-26T10:13:45Z</time>
      </trkpt>
      <trkpt lat="44.98884" lon="5.52867">
        <ele>1700.71</ele>
        <time>2021-01-26T10:13:50Z</time>
      </trkpt>
      <trkpt lat="44.98904" lon="5.52853">
        <ele>1692.54</ele>
        <time>2021-01-26T10:13:55Z</time>
      </trkpt>
      <trkpt lat="44.98919" lon="5.52853">
        <ele>1689.65</ele>
        <time>2021-01-26T10:14:33Z</time>
      </trkpt>
      <trkpt lat="44.98949" lon="5.52847">
        <ele>1686.29</ele>
        <time>2021-01-26T10:15:08Z</time>
      </trkpt>
      <trkpt lat="44.98969" lon="5.52822">
        <ele>1679.08</ele>
        <time>2021-01-26T10:15:13Z</time>
      </trkpt>
      <trkpt lat="44.98985" lon="5.52805">
        <ele>1674.27</ele>
        <time>2021-01-26T10:15:20Z</time>
      </trkpt>
      <trkpt lat="44.99012" lon="5.52804">
        <ele>1666.1</ele>
        <time>2021-01-26T10:15:57Z</time>
      </trkpt>
      <trkpt lat="44.99038" lon="5.52784">
        <ele>1655.05</ele>
        <time>2021-01-26T10:16:02Z</time>
      </trkpt>
      <trkpt lat="44.9907" lon="5.52772">
        <ele>1644.47</ele>
        <time>2021-01-26T10:16:06Z</time>
      </trkpt>
      <trkpt lat="44.99085" lon="5.52758">
        <ele>1641.11</ele>
        <time>2021-01-26T10:16:09Z</time>
      </trkpt>
      <trkpt lat="44.99099" lon="5.52735">
        <ele>1638.22</ele>
        <time>2021-01-26T10:16:12Z</time>
      </trkpt>
      <trkpt lat="44.99114" lon="5.52717">
        <ele>1633.42</ele>
        <time>2021-01-26T10:16:15Z</time>
      </trkpt>
      <trkpt lat="44.9913" lon="5.52711">
        <ele>1631.98</ele>
        <time>2021-01-26T10:17:59Z</time>
      </trkpt>
      <trkpt lat="44.99147" lon="5.52695">
        <ele>1628.61</ele>
        <time>2021-01-26T10:18:04Z</time>
      </trkpt>
      <trkpt lat="44.99168" lon="5.52683">
        <ele>1622.36</ele>
        <time>2021-01-26T10:18:08Z</time>
      </trkpt>
      <trkpt lat="44.99183" lon="5.52665">
        <ele>1618.04</ele>
        <time>2021-01-26T10:18:12Z</time>
      </trkpt>
      <trkpt lat="44.99201" lon="5.5265">
        <ele>1612.27</ele>
        <time>2021-01-26T10:18:16Z</time>
      </trkpt>
      <trkpt lat="44.99223" lon="5.52627">
        <ele>1604.58</ele>
        <time>2021-01-26T10:18:42Z</time>
      </trkpt>
      <trkpt lat="44.99237" lon="5.52607">
        <ele>1597.37</ele>
        <time>2021-01-26T10:18:47Z</time>
      </trkpt>
      <trkpt lat="44.9925" lon="5.52591">
        <ele>1590.64</ele>
        <time>2021-01-26T10:18:55Z</time>
      </trkpt>
      <trkpt lat="44.99252" lon="5.52571">
        <ele>1585.83</ele>
        <time>2021-01-26T10:19:27Z</time>
      </trkpt>
      <trkpt lat="44.99268" lon="5.5256">
        <ele>1578.14</ele>
        <time>2021-01-26T10:19:32Z</time>
      </trkpt>
      <trkpt lat="44.99271" lon="5.52526">
        <ele>1570.93</ele>
        <time>2021-01-26T10:19:38Z</time>
      </trkpt>
      <trkpt lat="44.99283" lon="5.5252">
        <ele>1565.64</ele>
        <time>2021-01-26T10:19:46Z</time>
      </trkpt>
      <trkpt lat="44.99295" lon="5.52489">
        <ele>1559.4</ele>
        <time>2021-01-26T10:19:58Z</time>
      </trkpt>
      <trkpt lat="44.99309" lon="5.52473">
        <ele>1555.07</ele>
        <time>2021-01-26T10:20:06Z</time>
      </trkpt>
      <trkpt lat="44.99323" lon="5.52449">
        <ele>1551.71</ele>
        <time>2021-01-26T10:20:11Z</time>
      </trkpt>
      <trkpt lat="44.99337" lon="5.52424">
        <ele>1548.34</ele>
        <time>2021-01-26T10:20:16Z</time>
      </trkpt>
      <trkpt lat="44.99356" lon="5.52393">
        <ele>1540.17</ele>
        <time>2021-01-26T10:20:21Z</time>
      </trkpt>
      <trkpt lat="44.99372" lon="5.5238">
        <ele>1532.96</ele>
        <time>2021-01-26T10:20:26Z</time>
      </trkpt>
      <trkpt lat="44.99386" lon="5.52334">
        <ele>1525.75</ele>
        <time>2021-01-26T10:20:33Z</time>
      </trkpt>
      <trkpt lat="44.99399" lon="5.52311">
        <ele>1522.39</ele>
        <time>2021-01-26T10:20:36Z</time>
      </trkpt>
      <trkpt lat="44.99419" lon="5.52295">
        <ele>1521.42</ele>
        <time>2021-01-26T10:20:55Z</time>
      </trkpt>
      <trkpt lat="44.99433" lon="5.52267">
        <ele>1517.1</ele>
        <time>2021-01-26T10:21:20Z</time>
      </trkpt>
      <trkpt lat="44.9945" lon="5.52264">
        <ele>1512.29</ele>
        <time>2021-01-26T10:21:33Z</time>
      </trkpt>
      <trkpt lat="44.99457" lon="5.52247">
        <ele>1505.56</ele>
        <time>2021-01-26T10:21:42Z</time>
      </trkpt>
      <trkpt lat="44.99493" lon="5.52254">
        <ele>1500.27</ele>
        <time>2021-01-26T10:21:58Z</time>
      </trkpt>
      <trkpt lat="44.99513" lon="5.5226">
        <ele>1496.91</ele>
        <time>2021-01-26T10:22:05Z</time>
      </trkpt>
      <trkpt lat="44.9954" lon="5.52254">
        <ele>1488.74</ele>
        <time>2021-01-26T10:22:27Z</time>
      </trkpt>
      <trkpt lat="44.99542" lon="5.52232">
        <ele>1484.89</ele>
        <time>2021-01-26T10:22:49Z</time>
      </trkpt>
      <trkpt lat="44.99552" lon="5.52217">
        <ele>1480.09</ele>
        <time>2021-01-26T10:22:57Z</time>
      </trkpt>
      <trkpt lat="44.99571" lon="5.52212">
        <ele>1473.84</ele>
        <time>2021-01-26T10:23:07Z</time>
      </trkpt>
      <trkpt lat="44.99591" lon="5.52191">
        <ele>1466.15</ele>
        <time>2021-01-26T10:23:23Z</time>
      </trkpt>
      <trkpt lat="44.9961" lon="5.52172">
        <ele>1460.38</ele>
        <time>2021-01-26T10:23:34Z</time>
      </trkpt>
      <trkpt lat="44.99638" lon="5.52149">
        <ele>1453.17</ele>
        <time>2021-01-26T10:23:51Z</time>
      </trkpt>
      <trkpt lat="44.99656" lon="5.521">
        <ele>1448.36</ele>
        <time>2021-01-26T10:24:04Z</time>
      </trkpt>
      <trkpt lat="44.99661" lon="5.52054">
        <ele>1444.04</ele>
        <time>2021-01-26T10:24:13Z</time>
      </trkpt>
      <trkpt lat="44.99677" lon="5.52027">
        <ele>1440.19</ele>
        <time>2021-01-26T10:24:44Z</time>
      </trkpt>
      <trkpt lat="44.99694" lon="5.51997">
        <ele>1432.5</ele>
        <time>2021-01-26T10:24:53Z</time>
      </trkpt>
      <trkpt lat="44.99711" lon="5.51975">
        <ele>1427.21</ele>
        <time>2021-01-26T10:25:08Z</time>
      </trkpt>
      <trkpt lat="44.99726" lon="5.51956">
        <ele>1421.45</ele>
        <time>2021-01-26T10:25:17Z</time>
      </trkpt>
      <trkpt lat="44.99729" lon="5.51929">
        <ele>1416.16</ele>
        <time>2021-01-26T10:25:50Z</time>
      </trkpt>
      <trkpt lat="44.99739" lon="5.51893">
        <ele>1409.43</ele>
        <time>2021-01-26T10:26:03Z</time>
      </trkpt>
      <trkpt lat="44.99757" lon="5.51877">
        <ele>1402.22</ele>
        <time>2021-01-26T10:26:10Z</time>
      </trkpt>
      <trkpt lat="44.9978" lon="5.51878">
        <ele>1395.97</ele>
        <time>2021-01-26T10:26:18Z</time>
      </trkpt>
      <trkpt lat="44.99799" lon="5.51864">
        <ele>1391.17</ele>
        <time>2021-01-26T10:26:56Z</time>
      </trkpt>
      <trkpt lat="44.99814" lon="5.51845">
        <ele>1385.4</ele>
        <time>2021-01-26T10:27:33Z</time>
      </trkpt>
      <trkpt lat="44.99835" lon="5.51827">
        <ele>1375.78</ele>
        <time>2021-01-26T10:28:00Z</time>
      </trkpt>
      <trkpt lat="44.99855" lon="5.51804">
        <ele>1367.13</ele>
        <time>2021-01-26T10:28:13Z</time>
      </trkpt>
      <trkpt lat="44.99868" lon="5.51775">
        <ele>1361.36</ele>
        <time>2021-01-26T10:28:21Z</time>
      </trkpt>
      <trkpt lat="44.99872" lon="5.51749">
        <ele>1358.48</ele>
        <time>2021-01-26T10:28:38Z</time>
      </trkpt>
      <trkpt lat="44.99883" lon="5.51721">
        <ele>1353.67</ele>
        <time>2021-01-26T10:29:13Z</time>
      </trkpt>
      <trkpt lat="44.99898" lon="5.51717">
        <ele>1351.27</ele>
        <time>2021-01-26T10:29:39Z</time>
      </trkpt>
      <trkpt lat="44.99924" lon="5.51705">
        <ele>1345.98</ele>
        <time>2021-01-26T10:29:53Z</time>
      </trkpt>
      <trkpt lat="44.99962" lon="5.51709">
        <ele>1342.14</ele>
        <time>2021-01-26T10:30:07Z</time>
      </trkpt>
      <trkpt lat="44.99987" lon="5.51721">
        <ele>1339.73</ele>
        <time>2021-01-26T10:30:14Z</time>
      </trkpt>
      <trkpt lat="45.00004" lon="5.51713">
        <ele>1338.29</ele>
        <time>2021-01-26T10:30:19Z</time>
      </trkpt>
      <trkpt lat="45.00025" lon="5.51712">
        <ele>1338.77</ele>
        <time>2021-01-26T10:30:42Z</time>
      </trkpt>
      <trkpt lat="45.00045" lon="5.51706">
        <ele>1336.85</ele>
        <time>2021-01-26T10:30:51Z</time>
      </trkpt>
      <trkpt lat="45.00062" lon="5.51697">
        <ele>1333.01</ele>
        <time>2021-01-26T10:30:57Z</time>
      </trkpt>
      <trkpt lat="45.00081" lon="5.51697">
        <ele>1328.2</ele>
        <time>2021-01-26T10:31:04Z</time>
      </trkpt>
      <trkpt lat="45.00106" lon="5.51685">
        <ele>1321.95</ele>
        <time>2021-01-26T10:31:12Z</time>
      </trkpt>
      <trkpt lat="45.00126" lon="5.51679">
        <ele>1319.55</ele>
        <time>2021-01-26T10:31:16Z</time>
      </trkpt>
      <trkpt lat="45.00145" lon="5.51676">
        <ele>1317.14</ele>
        <time>2021-01-26T10:31:21Z</time>
      </trkpt>
      <trkpt lat="45.00164" lon="5.51663">
        <ele>1314.74</ele>
        <time>2021-01-26T10:31:28Z</time>
      </trkpt>
      <trkpt lat="45.00181" lon="5.51654">
        <ele>1311.86</ele>
        <time>2021-01-26T10:31:32Z</time>
      </trkpt>
      <trkpt lat="45.002" lon="5.5165">
        <ele>1309.93</ele>
        <time>2021-01-26T10:31:36Z</time>
      </trkpt>
      <trkpt lat="45.00234" lon="5.51653">
        <ele>1306.57</ele>
        <time>2021-01-26T10:31:42Z</time>
      </trkpt>
      <trkpt lat="45.00285" lon="5.51655">
        <ele>1303.2</ele>
        <time>2021-01-26T10:31:54Z</time>
      </trkpt>
      <trkpt lat="45.00322" lon="5.51654">
        <ele>1300.32</ele>
        <time>2021-01-26T10:32:01Z</time>
      </trkpt>
      <trkpt lat="45.0034" lon="5.51658">
        <ele>1299.36</ele>
        <time>2021-01-26T10:32:06Z</time>
      </trkpt>
      <trkpt lat="45.00372" lon="5.51656">
        <ele>1296.96</ele>
        <time>2021-01-26T10:32:14Z</time>
      </trkpt>
      <trkpt lat="45.00393" lon="5.51657">
        <ele>1295.03</ele>
        <time>2021-01-26T10:32:18Z</time>
      </trkpt>
      <trkpt lat="45.00417" lon="5.51663">
        <ele>1293.11</ele>
        <time>2021-01-26T10:32:23Z</time>
      </trkpt>
      <trkpt lat="45.00445" lon="5.5167">
        <ele>1290.71</ele>
        <time>2021-01-26T10:32:31Z</time>
      </trkpt>
      <trkpt lat="45.00469" lon="5.5167">
        <ele>1286.38</ele>
        <time>2021-01-26T10:32:42Z</time>
      </trkpt>
      <trkpt lat="45.00488" lon="5.5167">
        <ele>1283.02</ele>
        <time>2021-01-26T10:32:46Z</time>
      </trkpt>
      <trkpt lat="45.00509" lon="5.51679">
        <ele>1279.17</ele>
        <time>2021-01-26T10:32:51Z</time>
      </trkpt>
      <trkpt lat="45.00526" lon="5.5169">
        <ele>1277.25</ele>
        <time>2021-01-26T10:32:54Z</time>
      </trkpt>
      <trkpt lat="45.00545" lon="5.517">
        <ele>1273.88</ele>
        <time>2021-01-26T10:32:57Z</time>
      </trkpt>
      <trkpt lat="45.00563" lon="5.51709">
        <ele>1273.4</ele>
        <time>2021-01-26T10:33:10Z</time>
      </trkpt>
      <trkpt lat="45.0061" lon="5.51729">
        <ele>1269.08</ele>
        <time>2021-01-26T10:33:25Z</time>
      </trkpt>
      <trkpt lat="45.00623" lon="5.51747">
        <ele>1267.64</ele>
        <time>2021-01-26T10:33:29Z</time>
      </trkpt>
      <trkpt lat="45.00617" lon="5.51776">
        <ele>1262.83</ele>
        <time>2021-01-26T10:33:33Z</time>
      </trkpt>
      <trkpt lat="45.00623" lon="5.51804">
        <ele>1259.46</ele>
        <time>2021-01-26T10:33:37Z</time>
      </trkpt>
      <trkpt lat="45.00632" lon="5.51834">
        <ele>1256.58</ele>
        <time>2021-01-26T10:33:41Z</time>
      </trkpt>
      <trkpt lat="45.00651" lon="5.51866">
        <ele>1253.22</ele>
        <time>2021-01-26T10:33:46Z</time>
      </trkpt>
      <trkpt lat="45.00695" lon="5.51893">
        <ele>1249.37</ele>
        <time>2021-01-26T10:34:15Z</time>
      </trkpt>
      <trkpt lat="45.00715" lon="5.51897">
        <ele>1247.93</ele>
        <time>2021-01-26T10:34:20Z</time>
      </trkpt>
      <trkpt lat="45.00742" lon="5.51881">
        <ele>1245.53</ele>
        <time>2021-01-26T10:34:28Z</time>
      </trkpt>
      <trkpt lat="45.00765" lon="5.5188">
        <ele>1243.12</ele>
        <time>2021-01-26T10:34:34Z</time>
      </trkpt>
      <trkpt lat="45.00797" lon="5.51892">
        <ele>1240.24</ele>
        <time>2021-01-26T10:34:43Z</time>
      </trkpt>
      <trkpt lat="45.00835" lon="5.51918">
        <ele>1237.83</ele>
        <time>2021-01-26T10:34:56Z</time>
      </trkpt>
      <trkpt lat="45.00863" lon="5.51934">
        <ele>1236.39</ele>
        <time>2021-01-26T10:35:07Z</time>
      </trkpt>
      <trkpt lat="45.00889" lon="5.51947">
        <ele>1235.43</ele>
        <time>2021-01-26T10:35:18Z</time>
      </trkpt>
      <trkpt lat="45.00926" lon="5.51993">
        <ele>1233.03</ele>
        <time>2021-01-26T10:35:36Z</time>
      </trkpt>
      <trkpt lat="45.00952" lon="5.52011">
        <ele>1231.11</ele>
        <time>2021-01-26T10:35:48Z</time>
      </trkpt>
      <trkpt lat="45.00978" lon="5.51997">
        <ele>1228.22</ele>
        <time>2021-01-26T10:35:56Z</time>
      </trkpt>
      <trkpt lat="45.01001" lon="5.51985">
        <ele>1224.38</ele>
        <time>2021-01-26T10:36:01Z</time>
      </trkpt>
      <trkpt lat="45.01014" lon="5.51965">
        <ele>1221.97</ele>
        <time>2021-01-26T10:36:05Z</time>
      </trkpt>
      <trkpt lat="45.0103" lon="5.51948">
        <ele>1217.65</ele>
        <time>2021-01-26T10:36:09Z</time>
      </trkpt>
      <trkpt lat="45.01042" lon="5.51926">
        <ele>1214.76</ele>
        <time>2021-01-26T10:36:13Z</time>
      </trkpt>
      <trkpt lat="45.01063" lon="5.5192">
        <ele>1213.8</ele>
        <time>2021-01-26T10:36:26Z</time>
      </trkpt>
      <trkpt lat="45.01096" lon="5.51918">
        <ele>1211.4</ele>
        <time>2021-01-26T10:36:37Z</time>
      </trkpt>
      <trkpt lat="45.01134" lon="5.51904">
        <ele>1208.51</ele>
        <time>2021-01-26T10:36:48Z</time>
      </trkpt>
      <trkpt lat="45.01185" lon="5.51886">
        <ele>1207.55</ele>
        <time>2021-01-26T10:37:01Z</time>
      </trkpt>
      <trkpt lat="45.01221" lon="5.51879">
        <ele>1205.63</ele>
        <time>2021-01-26T10:37:12Z</time>
      </trkpt>
      <trkpt lat="45.01248" lon="5.51863">
        <ele>1204.19</ele>
        <time>2021-01-26T10:37:23Z</time>
      </trkpt>
      <trkpt lat="45.01258" lon="5.51836">
        <ele>1203.71</ele>
        <time>2021-01-26T10:37:32Z</time>
      </trkpt>
      <trkpt lat="45.0127" lon="5.51807">
        <ele>1202.75</ele>
        <time>2021-01-26T10:37:41Z</time>
      </trkpt>
      <trkpt lat="45.01312" lon="5.51776">
        <ele>1200.34</ele>
        <time>2021-01-26T10:37:57Z</time>
      </trkpt>
      <trkpt lat="45.01333" lon="5.51769">
        <ele>1198.9</ele>
        <time>2021-01-26T10:38:06Z</time>
      </trkpt>
      <trkpt lat="45.01369" lon="5.51761">
        <ele>1197.46</ele>
        <time>2021-01-26T10:38:19Z</time>
      </trkpt>
      <trkpt lat="45.01405" lon="5.51763">
        <ele>1196.02</ele>
        <time>2021-01-26T10:38:30Z</time>
      </trkpt>
      <trkpt lat="45.01436" lon="5.51768">
        <ele>1194.58</ele>
        <time>2021-01-26T10:38:40Z</time>
      </trkpt>
      <trkpt lat="45.01455" lon="5.51765">
        <ele>1193.61</ele>
        <time>2021-01-26T10:38:48Z</time>
      </trkpt>
      <trkpt lat="45.01497" lon="5.51761">
        <ele>1191.69</ele>
        <time>2021-01-26T10:39:03Z</time>
      </trkpt>
      <trkpt lat="45.01535" lon="5.51755">
        <ele>1188.33</ele>
        <time>2021-01-26T10:39:13Z</time>
      </trkpt>
      <trkpt lat="45.01582" lon="5.5174">
        <ele>1184.96</ele>
        <time>2021-01-26T10:39:24Z</time>
      </trkpt>
      <trkpt lat="45.01627" lon="5.51709">
        <ele>1181.6</ele>
        <time>2021-01-26T10:39:35Z</time>
      </trkpt>
      <trkpt lat="45.01673" lon="5.51676">
        <ele>1178.23</ele>
        <time>2021-01-26T10:39:47Z</time>
      </trkpt>
      <trkpt lat="45.01698" lon="5.51656">
        <ele>1176.31</ele>
        <time>2021-01-26T10:39:53Z</time>
      </trkpt>
      <trkpt lat="45.01718" lon="5.51648">
        <ele>1176.31</ele>
        <time>2021-01-26T10:40:28Z</time>
      </trkpt>
      <trkpt lat="45.01743" lon="5.51633">
        <ele>1175.83</ele>
        <time>2021-01-26T10:40:40Z</time>
      </trkpt>
      <trkpt lat="45.01774" lon="5.51621">
        <ele>1172.47</ele>
        <time>2021-01-26T10:40:51Z</time>
      </trkpt>
      <trkpt lat="45.01781" lon="5.51602">
        <ele>1171.5</ele>
        <time>2021-01-26T10:42:27Z</time>
      </trkpt>
      <trkpt lat="45.01777" lon="5.51609">
        <ele>1172.47</ele>
        <time>2021-01-26T10:47:07Z</time>
      </trkpt>
      <trkpt lat="45.01773" lon="5.51606">
        <ele>1174.39</ele>
        <time>2021-01-26T10:54:30Z</time>
      </trkpt>
      <trkpt lat="45.01773" lon="5.51606">
        <ele>1176.31</ele>
        <time>2021-01-26T11:01:31Z</time>
      </trkpt>
      <trkpt lat="45.01778" lon="5.51617">
        <ele>1178.71</ele>
        <time>2021-01-26T11:04:26Z</time>
      </trkpt>
      <trkpt lat="45.018" lon="5.51627">
        <ele>1176.31</ele>
        <time>2021-01-26T11:04:44Z</time>
      </trkpt>
      <trkpt lat="45.01849" lon="5.51611">
        <ele>1173.43</ele>
        <time>2021-01-26T11:05:12Z</time>
      </trkpt>
      <trkpt lat="45.01871" lon="5.51606">
        <ele>1172.95</ele>
        <time>2021-01-26T11:05:21Z</time>
      </trkpt>
      <trkpt lat="45.01904" lon="5.51587">
        <ele>1171.02</ele>
        <time>2021-01-26T11:05:39Z</time>
      </trkpt>
      <trkpt lat="45.01941" lon="5.51548">
        <ele>1168.14</ele>
        <time>2021-01-26T11:05:53Z</time>
      </trkpt>
      <trkpt lat="45.01992" lon="5.5154">
        <ele>1166.22</ele>
        <time>2021-01-26T11:06:09Z</time>
      </trkpt>
      <trkpt lat="45.02036" lon="5.51552">
        <ele>1163.33</ele>
        <time>2021-01-26T11:06:21Z</time>
      </trkpt>
      <trkpt lat="45.02067" lon="5.51573">
        <ele>1159.97</ele>
        <time>2021-01-26T11:06:29Z</time>
      </trkpt>
      <trkpt lat="45.02083" lon="5.51598">
        <ele>1159.97</ele>
        <time>2021-01-26T11:06:35Z</time>
      </trkpt>
      <trkpt lat="45.02091" lon="5.51624">
        <ele>1157.56</ele>
        <time>2021-01-26T11:06:40Z</time>
      </trkpt>
      <trkpt lat="45.02123" lon="5.51664">
        <ele>1156.12</ele>
        <time>2021-01-26T11:06:52Z</time>
      </trkpt>
      <trkpt lat="45.02155" lon="5.51677">
        <ele>1154.2</ele>
        <time>2021-01-26T11:07:04Z</time>
      </trkpt>
      <trkpt lat="45.02185" lon="5.5169">
        <ele>1153.24</ele>
        <time>2021-01-26T11:07:14Z</time>
      </trkpt>
      <trkpt lat="45.0221" lon="5.51704">
        <ele>1152.28</ele>
        <time>2021-01-26T11:07:24Z</time>
      </trkpt>
      <trkpt lat="45.02235" lon="5.51718">
        <ele>1150.84</ele>
        <time>2021-01-26T11:07:35Z</time>
      </trkpt>
      <trkpt lat="45.0226" lon="5.51722">
        <ele>1150.35</ele>
        <time>2021-01-26T11:07:47Z</time>
      </trkpt>
      <trkpt lat="45.02296" lon="5.51735">
        <ele>1147.47</ele>
        <time>2021-01-26T11:07:59Z</time>
      </trkpt>
      <trkpt lat="45.02339" lon="5.51748">
        <ele>1144.11</ele>
        <time>2021-01-26T11:08:10Z</time>
      </trkpt>
      <trkpt lat="45.02376" lon="5.51752">
        <ele>1142.66</ele>
        <time>2021-01-26T11:08:22Z</time>
      </trkpt>
      <trkpt lat="45.02388" lon="5.51736">
        <ele>1141.7</ele>
        <time>2021-01-26T11:08:32Z</time>
      </trkpt>
      <trkpt lat="45.02414" lon="5.51736">
        <ele>1139.78</ele>
        <time>2021-01-26T11:08:51Z</time>
      </trkpt>
      <trkpt lat="45.02418" lon="5.51733">
        <ele>1139.3</ele>
        <time>2021-01-26T11:10:28Z</time>
      </trkpt>
    </trkseg>
  </trk>
</gpx>